Hamby Army Air Field, Japan

10:02 PM JST on March 05, 2015 (GMT +0900)
Futenma Marine Corps Air Station | Change Station
CLOSE
Current Station
Airport
Location: Futenma MCAF,
Elevation: 246 ft
Nearby Weather Stations

Elev 246 ft 26.27 °N, 127.75 °E | Updated 4 minutes ago

Overcast
Overcast
63 °F
Feels Like 63 °F
N
7
Wind Variable Wind from East

Today
High -- | Low -- °F
--% Chance of Precip.
Yesterday
High -- | Low -- °F
Precip. -- in
6:49 AM 6:32 PM
Full, 100% visible
Pressure 30.04 in
Visibility 5.6 miles
Clouds Mostly Cloudy 1500 ft
Overcast 2500 ft
Dew Point 58 °F
Humidity 83%
Rainfall 0.01 in
Snow Depth Not available.
UV 0 out of 12
Pollen Not available.
Air Quality Not available.
Flu Activity Not available.
METAR ROTM 051258Z 08006KT 9000 BR BKN015 OVC025 17/14 A3007 RMK SLP171 T01730144

More Conditions Fewer Conditions

Pressure 30.04 in
Visibility 5.6 miles
Clouds Mostly Cloudy 1500 ft
Overcast 2500 ft
Dew Point 58 °F
Humidity 83%
Rainfall 0.01 in
Snow Depth Not available.
UV 0 out of 12
Pollen Not available.
Air Quality Not available.
Flu Activity Not available.
METAR ROTM 051258Z 08006KT 9000 BR BKN015 OVC025 17/14 A3007 RMK SLP171 T01730144

More Conditions Fewer Conditions

10-Day Weather Forecast

Almanac

Astronomy

Mar. 05, 2015 Rise Set
Actual Time
Civil Twilight
Nautical Twilight
Astronomical Twilight
Moon
Length of Visible Light
Length of Day
Tomorrow will be .
, % of the Moon is Illuminated

Today's Extremes

Country Highs Country Lows

Community

WunderPhotos

Upload Photos

1,802,749 photos uploaded!

WunderBlogs® & News

Nearby

Air Quality

  Air Quality AQ Index Pollutant
Not available.

Snow Depth

Station Depth Elevation

Earthquake Activity

City Distance Mag. Time & Date
Minimum magnitude displayed is 2.5.

Coastal Water Temperatures

Place Temperature

Nearby Weather Stations